sensor_id;sensor_type;location;lat;lon;timestamp;P1;durP1;ratioP1;P2;durP2;ratioP2
48550;SDS011;34397;51.176;6.738;2023-02-20T00:00:54;10.07;;;3.65;;
48550;SDS011;34397;51.176;6.738;2023-02-20T00:03:26;7.57;;;4.15;;
48550;SDS011;34397;51.176;6.738;2023-02-20T00:06:01;8.70;;;3.85;;
48550;SDS011;34397;51.176;6.738;2023-02-20T00:08:33;6.35;;;3.92;;
48550;SDS011;34397;51.176;6.738;2023-02-20T00:11:05;7.90;;;3.92;;
48550;SDS011;34397;51.176;6.738;2023-02-20T00:13:37;8.05;;;4.55;;
48550;SDS011;34397;51.176;6.738;2023-02-20T00:16:09;6.03;;;4.10;;
48550;SDS011;34397;51.176;6.738;2023-02-20T00:18:40;8.82;;;4.22;;
48550;SDS011;34397;51.176;6.738;2023-02-20T00:21:14;7.38;;;4.40;;
48550;SDS011;34397;51.176;6.738;2023-02-20T00:23:45;9.52;;;5.10;;
48550;SDS011;34397;51.176;6.738;2023-02-20T00:26:17;11.10;;;4.90;;
48550;SDS011;34397;51.176;6.738;2023-02-20T00:28:49;9.40;;;4.97;;
48550;SDS011;34397;51.176;6.738;2023-02-20T00:31:21;10.07;;;5.38;;
48550;SDS011;34397;51.176;6.738;2023-02-20T00:33:53;8.05;;;5.30;;
48550;SDS011;34397;51.176;6.738;2023-02-20T00:36:27;9.33;;;5.83;;
48550;SDS011;34397;51.176;6.738;2023-02-20T00:38:59;13.27;;;6.17;;
48550;SDS011;34397;51.176;6.738;2023-02-20T00:41:30;11.40;;;6.00;;
48550;SDS011;34397;51.176;6.738;2023-02-20T00:44:02;11.10;;;5.97;;
48550;SDS011;34397;51.176;6.738;2023-02-20T00:46:34;11.88;;;5.90;;
48550;SDS011;34397;51.176;6.738;2023-02-20T00:49:06;12.15;;;6.05;;
48550;SDS011;34397;51.176;6.738;2023-02-20T00:51:39;11.93;;;6.15;;
48550;SDS011;34397;51.176;6.738;2023-02-20T00:54:11;10.20;;;6.00;;
48550;SDS011;34397;51.176;6.738;2023-02-20T00:56:43;9.35;;;5.72;;
48550;SDS011;34397;51.176;6.738;2023-02-20T00:59:15;12.18;;;6.28;;
48550;SDS011;34397;51.176;6.738;2023-02-20T01:01:47;11.45;;;6.18;;
48550;SDS011;34397;51.176;6.738;2023-02-20T01:04:19;11.80;;;6.43;;
48550;SDS011;34397;51.176;6.738;2023-02-20T01:06:52;11.93;;;5.75;;
48550;SDS011;34397;51.176;6.738;2023-02-20T01:09:24;10.38;;;6.13;;
48550;SDS011;34397;51.176;6.738;2023-02-20T01:11:57;9.95;;;6.45;;
48550;SDS011;34397;51.176;6.738;2023-02-20T01:14:29;10.43;;;6.47;;
48550;SDS011;34397;51.176;6.738;2023-02-20T01:17:01;9.35;;;5.95;;
48550;SDS011;34397;51.176;6.738;2023-02-20T01:19:33;11.77;;;6.68;;
48550;SDS011;34397;51.176;6.738;2023-02-20T01:22:06;10.15;;;6.60;;
48550;SDS011;34397;51.176;6.738;2023-02-20T01:24:38;10.23;;;6.20;;
48550;SDS011;34397;51.176;6.738;2023-02-20T01:27:11;10.93;;;6.22;;
48550;SDS011;34397;51.176;6.738;2023-02-20T01:29:42;10.00;;;6.43;;
48550;SDS011;34397;51.176;6.738;2023-02-20T01:32:14;15.27;;;6.38;;
48550;SDS011;34397;51.176;6.738;2023-02-20T01:34:46;13.10;;;7.45;;
48550;SDS011;34397;51.176;6.738;2023-02-20T01:37:19;11.73;;;6.38;;
48550;SDS011;34397;51.176;6.738;2023-02-20T01:39:51;9.52;;;6.13;;
48550;SDS011;34397;51.176;6.738;2023-02-20T01:42:24;10.85;;;6.60;;
48550;SDS011;34397;51.176;6.738;2023-02-20T01:45:17;10.95;;;6.32;;
48550;SDS011;34397;51.176;6.738;2023-02-20T01:48:04;10.98;;;6.25;;
48550;SDS011;34397;51.176;6.738;2023-02-20T01:50:37;11.50;;;6.78;;
48550;SDS011;34397;51.176;6.738;2023-02-20T01:53:14;12.15;;;6.25;;
48550;SDS011;34397;51.176;6.738;2023-02-20T01:55:50;11.82;;;7.15;;
48550;SDS011;34397;51.176;6.738;2023-02-20T01:58:25;11.63;;;7.00;;
48550;SDS011;34397;51.176;6.738;2023-02-20T02:01:01;10.98;;;6.95;;
48550;SDS011;34397;51.176;6.738;2023-02-20T02:03:35;10.95;;;6.97;;
48550;SDS011;34397;51.176;6.738;2023-02-20T02:06:11;13.23;;;7.25;;
48550;SDS011;34397;51.176;6.738;2023-02-20T02:08:46;9.88;;;6.57;;
48550;SDS011;34397;51.176;6.738;2023-02-20T02:11:19;9.80;;;6.60;;
48550;SDS011;34397;51.176;6.738;2023-02-20T02:13:54;12.25;;;6.45;;
48550;SDS011;34397;51.176;6.738;2023-02-20T02:16:27;10.20;;;6.15;;
48550;SDS011;34397;51.176;6.738;2023-02-20T02:19:08;12.50;;;6.97;;
48550;SDS011;34397;51.176;6.738;2023-02-20T02:25:09;10.77;;;7.10;;
48550;SDS011;34397;51.176;6.738;2023-02-20T02:28:20;10.52;;;6.35;;
48550;SDS011;34397;51.176;6.738;2023-02-20T02:35:00;13.43;;;7.53;;
48550;SDS011;34397;51.176;6.738;2023-02-20T02:38:19;10.82;;;6.85;;
48550;SDS011;34397;51.176;6.738;2023-02-20T02:40:59;12.50;;;7.43;;
48550;SDS011;34397;51.176;6.738;2023-02-20T02:43:41;13.20;;;7.55;;
48550;SDS011;34397;51.176;6.738;2023-02-20T02:46:21;13.30;;;7.67;;
48550;SDS011;34397;51.176;6.738;2023-02-20T02:49:01;12.77;;;6.40;;
48550;SDS011;34397;51.176;6.738;2023-02-20T02:51:39;14.57;;;7.07;;
48550;SDS011;34397;51.176;6.738;2023-02-20T02:54:19;11.10;;;6.83;;
48550;SDS011;34397;51.176;6.738;2023-02-20T02:59:53;12.57;;;7.77;;
48550;SDS011;34397;51.176;6.738;2023-02-20T03:02:30;14.18;;;8.07;;
48550;SDS011;34397;51.176;6.738;2023-02-20T03:05:07;11.57;;;7.23;;
48550;SDS011;34397;51.176;6.738;2023-02-20T03:07:42;16.48;;;8.07;;
48550;SDS011;34397;51.176;6.738;2023-02-20T03:10:21;15.00;;;8.00;;
48550;SDS011;34397;51.176;6.738;2023-02-20T03:13:01;15.93;;;8.23;;
48550;SDS011;34397;51.176;6.738;2023-02-20T03:15:35;15.93;;;8.07;;
48550;SDS011;34397;51.176;6.738;2023-02-20T03:18:12;13.63;;;8.13;;
48550;SDS011;34397;51.176;6.738;2023-02-20T03:20:53;17.75;;;7.85;;
48550;SDS011;34397;51.176;6.738;2023-02-20T03:23:30;14.85;;;7.70;;
48550;SDS011;34397;51.176;6.738;2023-02-20T03:26:07;13.07;;;7.30;;
48550;SDS011;34397;51.176;6.738;2023-02-20T03:28:48;14.95;;;7.32;;
48550;SDS011;34397;51.176;6.738;2023-02-20T03:31:25;14.60;;;8.20;;
48550;SDS011;34397;51.176;6.738;2023-02-20T03:34:03;14.43;;;7.43;;
48550;SDS011;34397;51.176;6.738;2023-02-20T03:36:56;11.20;;;6.43;;
48550;SDS011;34397;51.176;6.738;2023-02-20T03:39:51;16.17;;;7.13;;
48550;SDS011;34397;51.176;6.738;2023-02-20T03:42:47;16.63;;;7.57;;
48550;SDS011;34397;51.176;6.738;2023-02-20T03:45:41;12.80;;;6.90;;
48550;SDS011;34397;51.176;6.738;2023-02-20T03:48:19;13.98;;;7.45;;
48550;SDS011;34397;51.176;6.738;2023-02-20T03:51:06;14.33;;;7.03;;
48550;SDS011;34397;51.176;6.738;2023-02-20T03:53:57;13.43;;;6.57;;
48550;SDS011;34397;51.176;6.738;2023-02-20T03:56:31;11.87;;;6.73;;
48550;SDS011;34397;51.176;6.738;2023-02-20T03:59:10;12.43;;;6.67;;
48550;SDS011;34397;51.176;6.738;2023-02-20T04:01:46;11.38;;;5.80;;
48550;SDS011;34397;51.176;6.738;2023-02-20T04:04:22;11.80;;;5.73;;
48550;SDS011;34397;51.176;6.738;2023-02-20T04:06:59;11.25;;;5.90;;
48550;SDS011;34397;51.176;6.738;2023-02-20T04:09:37;12.50;;;5.45;;
48550;SDS011;34397;51.176;6.738;2023-02-20T04:12:15;11.13;;;5.00;;
48550;SDS011;34397;51.176;6.738;2023-02-20T04:14:53;14.27;;;5.80;;
48550;SDS011;34397;51.176;6.738;2023-02-20T04:17:28;8.48;;;4.93;;
48550;SDS011;34397;51.176;6.738;2023-02-20T04:20:05;11.30;;;5.53;;
48550;SDS011;34397;51.176;6.738;2023-02-20T04:22:40;10.10;;;5.20;;
48550;SDS011;34397;51.176;6.738;2023-02-20T04:25:17;9.23;;;4.97;;
48550;SDS011;34397;51.176;6.738;2023-02-20T04:27:57;11.70;;;5.30;;
48550;SDS011;34397;51.176;6.738;2023-02-20T04:30:30;13.70;;;6.20;;
48550;SDS011;34397;51.176;6.738;2023-02-20T04:33:02;12.40;;;5.60;;
48550;SDS011;34397;51.176;6.738;2023-02-20T04:35:34;10.25;;;5.10;;
48550;SDS011;34397;51.176;6.738;2023-02-20T04:38:06;8.55;;;5.18;;
48550;SDS011;34397;51.176;6.738;2023-02-20T04:40:39;13.57;;;5.20;;
48550;SDS011;34397;51.176;6.738;2023-02-20T04:43:11;11.90;;;5.13;;
48550;SDS011;34397;51.176;6.738;2023-02-20T04:45:44;11.32;;;4.60;;
48550;SDS011;34397;51.176;6.738;2023-02-20T04:48:16;15.00;;;5.17;;
48550;SDS011;34397;51.176;6.738;2023-02-20T04:50:48;10.90;;;4.90;;
48550;SDS011;34397;51.176;6.738;2023-02-20T04:53:20;9.85;;;4.38;;
48550;SDS011;34397;51.176;6.738;2023-02-20T04:55:51;14.05;;;4.65;;
48550;SDS011;34397;51.176;6.738;2023-02-20T04:58:23;8.73;;;4.55;;
48550;SDS011;34397;51.176;6.738;2023-02-20T05:00:57;11.75;;;4.32;;
48550;SDS011;34397;51.176;6.738;2023-02-20T05:03:28;10.27;;;4.97;;
48550;SDS011;34397;51.176;6.738;2023-02-20T05:06:00;10.43;;;4.22;;
48550;SDS011;34397;51.176;6.738;2023-02-20T05:08:32;9.20;;;3.92;;
48550;SDS011;34397;51.176;6.738;2023-02-20T05:11:04;6.75;;;3.83;;
48550;SDS011;34397;51.176;6.738;2023-02-20T05:13:36;9.63;;;4.43;;
48550;SDS011;34397;51.176;6.738;2023-02-20T05:16:09;14.55;;;3.70;;
48550;SDS011;34397;51.176;6.738;2023-02-20T05:18:42;9.40;;;3.93;;
48550;SDS011;34397;51.176;6.738;2023-02-20T05:21:14;9.10;;;3.25;;
48550;SDS011;34397;51.176;6.738;2023-02-20T05:24:04;9.97;;;3.50;;
48550;SDS011;34397;51.176;6.738;2023-02-20T05:26:37;9.05;;;3.45;;
48550;SDS011;34397;51.176;6.738;2023-02-20T05:29:09;8.55;;;3.40;;
48550;SDS011;34397;51.176;6.738;2023-02-20T05:31:43;10.70;;;3.40;;
48550;SDS011;34397;51.176;6.738;2023-02-20T05:34:15;8.60;;;3.47;;
48550;SDS011;34397;51.176;6.738;2023-02-20T05:36:50;10.00;;;3.03;;
48550;SDS011;34397;51.176;6.738;2023-02-20T05:41:54;9.10;;;3.10;;
48550;SDS011;34397;51.176;6.738;2023-02-20T05:44:26;6.97;;;3.05;;
48550;SDS011;34397;51.176;6.738;2023-02-20T05:46:59;12.38;;;3.13;;
48550;SDS011;34397;51.176;6.738;2023-02-20T05:49:32;10.23;;;3.43;;
48550;SDS011;34397;51.176;6.738;2023-02-20T05:52:04;9.40;;;3.60;;
48550;SDS011;34397;51.176;6.738;2023-02-20T05:54:40;10.80;;;3.25;;
48550;SDS011;34397;51.176;6.738;2023-02-20T05:57:12;11.60;;;3.83;;
48550;SDS011;34397;51.176;6.738;2023-02-20T05:59:45;9.77;;;3.63;;
48550;SDS011;34397;51.176;6.738;2023-02-20T06:02:19;10.35;;;3.40;;
48550;SDS011;34397;51.176;6.738;2023-02-20T06:04:50;7.97;;;2.90;;
48550;SDS011;34397;51.176;6.738;2023-02-20T06:07:22;9.52;;;2.88;;
48550;SDS011;34397;51.176;6.738;2023-02-20T06:09:54;8.57;;;3.05;;
48550;SDS011;34397;51.176;6.738;2023-02-20T06:12:27;9.40;;;3.70;;
48550;SDS011;34397;51.176;6.738;2023-02-20T06:14:58;9.65;;;3.40;;
48550;SDS011;34397;51.176;6.738;2023-02-20T06:17:32;12.52;;;4.00;;
48550;SDS011;34397;51.176;6.738;2023-02-20T06:20:04;9.27;;;3.30;;
48550;SDS011;34397;51.176;6.738;2023-02-20T06:22:37;8.52;;;3.50;;
48550;SDS011;34397;51.176;6.738;2023-02-20T06:25:08;8.77;;;3.60;;
48550;SDS011;34397;51.176;6.738;2023-02-20T06:27:40;8.30;;;3.60;;
48550;SDS011;34397;51.176;6.738;2023-02-20T06:30:12;7.85;;;3.92;;
48550;SDS011;34397;51.176;6.738;2023-02-20T06:32:46;10.45;;;4.22;;
48550;SDS011;34397;51.176;6.738;2023-02-20T06:35:17;11.75;;;4.57;;
48550;SDS011;34397;51.176;6.738;2023-02-20T06:37:49;10.48;;;4.55;;
48550;SDS011;34397;51.176;6.738;2023-02-20T06:40:21;10.35;;;5.20;;
48550;SDS011;34397;51.176;6.738;2023-02-20T06:42:53;14.68;;;5.65;;
48550;SDS011;34397;51.176;6.738;2023-02-20T06:45:25;10.95;;;6.03;;
48550;SDS011;34397;51.176;6.738;2023-02-20T06:47:58;11.85;;;6.32;;
48550;SDS011;34397;51.176;6.738;2023-02-20T06:50:30;15.82;;;6.65;;
48550;SDS011;34397;51.176;6.738;2023-02-20T06:53:01;16.83;;;7.78;;
48550;SDS011;34397;51.176;6.738;2023-02-20T06:55:33;16.55;;;8.90;;
48550;SDS011;34397;51.176;6.738;2023-02-20T06:58:05;16.40;;;8.30;;
48550;SDS011;34397;51.176;6.738;2023-02-20T07:00:37;15.25;;;7.90;;
48550;SDS011;34397;51.176;6.738;2023-02-20T07:03:10;15.80;;;8.10;;
48550;SDS011;34397;51.176;6.738;2023-02-20T07:05:42;16.65;;;8.23;;
48550;SDS011;34397;51.176;6.738;2023-02-20T07:08:15;14.00;;;8.23;;
48550;SDS011;34397;51.176;6.738;2023-02-20T07:10:47;15.20;;;8.80;;
48550;SDS011;34397;51.176;6.738;2023-02-20T07:13:18;17.52;;;8.95;;
48550;SDS011;34397;51.176;6.738;2023-02-20T07:15:51;16.05;;;9.27;;
48550;SDS011;34397;51.176;6.738;2023-02-20T07:18:24;19.77;;;9.10;;
48550;SDS011;34397;51.176;6.738;2023-02-20T07:20:56;18.60;;;9.60;;
48550;SDS011;34397;51.176;6.738;2023-02-20T07:23:28;14.93;;;9.23;;
48550;SDS011;34397;51.176;6.738;2023-02-20T07:25:59;16.45;;;9.55;;
48550;SDS011;34397;51.176;6.738;2023-02-20T07:28:32;16.38;;;8.45;;
48550;SDS011;34397;51.176;6.738;2023-02-20T07:31:05;14.70;;;8.90;;
48550;SDS011;34397;51.176;6.738;2023-02-20T07:33:38;14.35;;;9.05;;
48550;SDS011;34397;51.176;6.738;2023-02-20T07:36:12;18.95;;;9.85;;
48550;SDS011;34397;51.176;6.738;2023-02-20T07:38:51;16.55;;;9.80;;
48550;SDS011;34397;51.176;6.738;2023-02-20T07:41:26;16.35;;;9.77;;
48550;SDS011;34397;51.176;6.738;2023-02-20T07:44:00;21.00;;;9.85;;
48550;SDS011;34397;51.176;6.738;2023-02-20T07:46:32;17.10;;;8.98;;
48550;SDS011;34397;51.176;6.738;2023-02-20T07:49:05;19.40;;;9.68;;
48550;SDS011;34397;51.176;6.738;2023-02-20T07:51:37;16.50;;;9.23;;
48550;SDS011;34397;51.176;6.738;2023-02-20T07:54:09;16.80;;;9.68;;
48550;SDS011;34397;51.176;6.738;2023-02-20T07:56:41;18.20;;;10.80;;
48550;SDS011;34397;51.176;6.738;2023-02-20T07:59:13;14.55;;;9.30;;
48550;SDS011;34397;51.176;6.738;2023-02-20T08:01:45;19.05;;;10.18;;
48550;SDS011;34397;51.176;6.738;2023-02-20T08:04:18;15.52;;;9.93;;
48550;SDS011;34397;51.176;6.738;2023-02-20T08:06:49;17.92;;;10.30;;
48550;SDS011;34397;51.176;6.738;2023-02-20T08:09:21;17.67;;;9.82;;
48550;SDS011;34397;51.176;6.738;2023-02-20T08:11:53;18.20;;;9.73;;
48550;SDS011;34397;51.176;6.738;2023-02-20T08:14:26;18.42;;;10.23;;
48550;SDS011;34397;51.176;6.738;2023-02-20T08:16:58;21.67;;;11.05;;
48550;SDS011;34397;51.176;6.738;2023-02-20T08:19:31;16.58;;;10.50;;
48550;SDS011;34397;51.176;6.738;2023-02-20T08:22:03;20.02;;;10.52;;
48550;SDS011;34397;51.176;6.738;2023-02-20T08:24:35;19.05;;;9.88;;
48550;SDS011;34397;51.176;6.738;2023-02-20T08:27:07;16.73;;;9.80;;
48550;SDS011;34397;51.176;6.738;2023-02-20T08:29:38;15.25;;;10.00;;
48550;SDS011;34397;51.176;6.738;2023-02-20T08:32:10;20.33;;;10.63;;
48550;SDS011;34397;51.176;6.738;2023-02-20T08:34:43;14.57;;;10.05;;
48550;SDS011;34397;51.176;6.738;2023-02-20T08:37:15;16.67;;;10.68;;
48550;SDS011;34397;51.176;6.738;2023-02-20T08:39:47;17.42;;;9.75;;
48550;SDS011;34397;51.176;6.738;2023-02-20T08:42:19;19.38;;;10.60;;
48550;SDS011;34397;51.176;6.738;2023-02-20T08:44:51;16.63;;;9.27;;
48550;SDS011;34397;51.176;6.738;2023-02-20T08:47:22;12.85;;;8.15;;
48550;SDS011;34397;51.176;6.738;2023-02-20T08:49:55;13.48;;;9.30;;
48550;SDS011;34397;51.176;6.738;2023-02-20T08:52:27;14.27;;;9.27;;
48550;SDS011;34397;51.176;6.738;2023-02-20T08:54:59;19.83;;;10.05;;
48550;SDS011;34397;51.176;6.738;2023-02-20T08:57:31;15.45;;;9.95;;
48550;SDS011;34397;51.176;6.738;2023-02-20T09:00:03;14.10;;;9.23;;
48550;SDS011;34397;51.176;6.738;2023-02-20T09:02:36;14.27;;;9.00;;
48550;SDS011;34397;51.176;6.738;2023-02-20T09:05:09;17.80;;;9.32;;
48550;SDS011;34397;51.176;6.738;2023-02-20T09:07:41;15.65;;;8.80;;
48550;SDS011;34397;51.176;6.738;2023-02-20T09:10:14;15.95;;;8.90;;
48550;SDS011;34397;51.176;6.738;2023-02-20T09:12:47;14.95;;;8.80;;
48550;SDS011;34397;51.176;6.738;2023-02-20T09:15:19;11.55;;;7.00;;
48550;SDS011;34397;51.176;6.738;2023-02-20T09:17:51;19.08;;;8.68;;
48550;SDS011;34397;51.176;6.738;2023-02-20T09:20:25;13.75;;;8.57;;
48550;SDS011;34397;51.176;6.738;2023-02-20T09:22:57;14.35;;;7.82;;
48550;SDS011;34397;51.176;6.738;2023-02-20T09:25:30;17.20;;;8.57;;
48550;SDS011;34397;51.176;6.738;2023-02-20T09:28:02;15.15;;;8.40;;
48550;SDS011;34397;51.176;6.738;2023-02-20T09:30:34;13.88;;;7.45;;
48550;SDS011;34397;51.176;6.738;2023-02-20T09:33:06;16.17;;;7.45;;
48550;SDS011;34397;51.176;6.738;2023-02-20T09:35:39;11.38;;;7.10;;
48550;SDS011;34397;51.176;6.738;2023-02-20T09:38:11;12.43;;;7.85;;
48550;SDS011;34397;51.176;6.738;2023-02-20T09:40:43;18.50;;;8.10;;
48550;SDS011;34397;51.176;6.738;2023-02-20T09:43:22;13.82;;;7.72;;
48550;SDS011;34397;51.176;6.738;2023-02-20T09:46:14;17.23;;;9.18;;
48550;SDS011;34397;51.176;6.738;2023-02-20T09:48:53;14.93;;;7.13;;
48550;SDS011;34397;51.176;6.738;2023-02-20T09:51:36;14.90;;;7.78;;
48550;SDS011;34397;51.176;6.738;2023-02-20T09:54:12;17.70;;;7.13;;
48550;SDS011;34397;51.176;6.738;2023-02-20T09:56:51;17.88;;;9.50;;
48550;SDS011;34397;51.176;6.738;2023-02-20T09:59:27;15.25;;;8.52;;
48550;SDS011;34397;51.176;6.738;2023-02-20T10:02:09;15.73;;;8.98;;
48550;SDS011;34397;51.176;6.738;2023-02-20T10:07:22;17.30;;;8.77;;
48550;SDS011;34397;51.176;6.738;2023-02-20T10:09:57;19.80;;;9.82;;
48550;SDS011;34397;51.176;6.738;2023-02-20T10:12:31;16.83;;;9.18;;
48550;SDS011;34397;51.176;6.738;2023-02-20T10:15:11;14.70;;;8.75;;
48550;SDS011;34397;51.176;6.738;2023-02-20T10:17:53;20.20;;;9.52;;
48550;SDS011;34397;51.176;6.738;2023-02-20T10:20:35;18.40;;;9.13;;
48550;SDS011;34397;51.176;6.738;2023-02-20T10:23:17;19.05;;;8.75;;
48550;SDS011;34397;51.176;6.738;2023-02-20T10:25:59;19.95;;;8.93;;
48550;SDS011;34397;51.176;6.738;2023-02-20T10:28:35;20.58;;;9.02;;
48550;SDS011;34397;51.176;6.738;2023-02-20T10:31:08;17.10;;;8.57;;
48550;SDS011;34397;51.176;6.738;2023-02-20T10:33:53;16.35;;;8.55;;
48550;SDS011;34397;51.176;6.738;2023-02-20T10:36:32;18.20;;;8.75;;
48550;SDS011;34397;51.176;6.738;2023-02-20T10:39:10;17.50;;;9.18;;
48550;SDS011;34397;51.176;6.738;2023-02-20T10:41:45;14.50;;;7.63;;
48550;SDS011;34397;51.176;6.738;2023-02-20T10:44:24;17.38;;;9.32;;
48550;SDS011;34397;51.176;6.738;2023-02-20T10:47:02;14.32;;;8.02;;
48550;SDS011;34397;51.176;6.738;2023-02-20T10:49:43;16.27;;;8.20;;
48550;SDS011;34397;51.176;6.738;2023-02-20T10:52:23;16.75;;;7.63;;
48550;SDS011;34397;51.176;6.738;2023-02-20T10:55:02;13.38;;;8.82;;
48550;SDS011;34397;51.176;6.738;2023-02-20T10:57:40;18.10;;;8.73;;
48550;SDS011;34397;51.176;6.738;2023-02-20T11:00:19;16.38;;;9.18;;
48550;SDS011;34397;51.176;6.738;2023-02-20T11:02:55;16.75;;;9.18;;
48550;SDS011;34397;51.176;6.738;2023-02-20T11:05:36;13.52;;;7.47;;
48550;SDS011;34397;51.176;6.738;2023-02-20T11:08:12;16.33;;;9.10;;
48550;SDS011;34397;51.176;6.738;2023-02-20T11:10:53;16.27;;;8.93;;
48550;SDS011;34397;51.176;6.738;2023-02-20T11:13:30;11.45;;;8.52;;
48550;SDS011;34397;51.176;6.738;2023-02-20T11:16:03;13.80;;;7.22;;
48550;SDS011;34397;51.176;6.738;2023-02-20T11:18:36;11.77;;;7.05;;
48550;SDS011;34397;51.176;6.738;2023-02-20T11:21:10;16.08;;;8.45;;
48550;SDS011;34397;51.176;6.738;2023-02-20T11:24:16;14.55;;;7.57;;
48550;SDS011;34397;51.176;6.738;2023-02-20T11:27:03;13.63;;;7.22;;
48550;SDS011;34397;51.176;6.738;2023-02-20T11:29:41;15.20;;;8.10;;
48550;SDS011;34397;51.176;6.738;2023-02-20T11:32:23;15.93;;;7.75;;
48550;SDS011;34397;51.176;6.738;2023-02-20T11:35:11;18.13;;;8.52;;
48550;SDS011;34397;51.176;6.738;2023-02-20T11:41:22;16.20;;;8.40;;
48550;SDS011;34397;51.176;6.738;2023-02-20T11:44:13;16.23;;;8.82;;
48550;SDS011;34397;51.176;6.738;2023-02-20T11:47:07;15.05;;;8.15;;
48550;SDS011;34397;51.176;6.738;2023-02-20T11:49:48;14.43;;;8.68;;
48550;SDS011;34397;51.176;6.738;2023-02-20T11:52:20;15.02;;;8.30;;
48550;SDS011;34397;51.176;6.738;2023-02-20T11:55:07;12.65;;;7.80;;
48550;SDS011;34397;51.176;6.738;2023-02-20T11:57:42;14.63;;;8.38;;
48550;SDS011;34397;51.176;6.738;2023-02-20T12:00:18;18.42;;;8.60;;
48550;SDS011;34397;51.176;6.738;2023-02-20T12:02:53;15.68;;;8.70;;
48550;SDS011;34397;51.176;6.738;2023-02-20T12:05:37;17.60;;;9.10;;
48550;SDS011;34397;51.176;6.738;2023-02-20T12:08:19;15.30;;;8.48;;
48550;SDS011;34397;51.176;6.738;2023-02-20T12:11:02;16.77;;;9.10;;
48550;SDS011;34397;51.176;6.738;2023-02-20T12:13:38;15.88;;;9.43;;
48550;SDS011;34397;51.176;6.738;2023-02-20T12:16:21;17.20;;;9.00;;
48550;SDS011;34397;51.176;6.738;2023-02-20T12:19:08;16.20;;;8.90;;
48550;SDS011;34397;51.176;6.738;2023-02-20T12:21:48;16.45;;;8.90;;
48550;SDS011;34397;51.176;6.738;2023-02-20T12:24:37;17.75;;;8.90;;
48550;SDS011;34397;51.176;6.738;2023-02-20T12:27:25;16.60;;;8.63;;
48550;SDS011;34397;51.176;6.738;2023-02-20T12:30:32;16.83;;;8.90;;
48550;SDS011;34397;51.176;6.738;2023-02-20T12:33:30;18.98;;;9.25;;
48550;SDS011;34397;51.176;6.738;2023-02-20T12:36:24;13.32;;;8.30;;
48550;SDS011;34397;51.176;6.738;2023-02-20T12:39:02;16.40;;;8.73;;
48550;SDS011;34397;51.176;6.738;2023-02-20T12:41:47;15.80;;;8.65;;
48550;SDS011;34397;51.176;6.738;2023-02-20T12:44:36;16.48;;;9.32;;
48550;SDS011;34397;51.176;6.738;2023-02-20T12:47:28;13.82;;;8.85;;
48550;SDS011;34397;51.176;6.738;2023-02-20T12:53:16;14.27;;;8.75;;
48550;SDS011;34397;51.176;6.738;2023-02-20T12:56:11;15.07;;;8.63;;
48550;SDS011;34397;51.176;6.738;2023-02-20T12:58:58;15.48;;;8.63;;
48550;SDS011;34397;51.176;6.738;2023-02-20T13:01:35;14.80;;;8.95;;
48550;SDS011;34397;51.176;6.738;2023-02-20T13:04:12;18.30;;;9.63;;
48550;SDS011;34397;51.176;6.738;2023-02-20T13:06:55;15.27;;;8.23;;
48550;SDS011;34397;51.176;6.738;2023-02-20T13:09:34;16.23;;;9.10;;
48550;SDS011;34397;51.176;6.738;2023-02-20T13:12:11;14.02;;;8.10;;
48550;SDS011;34397;51.176;6.738;2023-02-20T13:14:52;16.35;;;9.23;;
48550;SDS011;34397;51.176;6.738;2023-02-20T13:17:36;14.25;;;8.73;;
48550;SDS011;34397;51.176;6.738;2023-02-20T13:20:16;14.48;;;8.85;;
48550;SDS011;34397;51.176;6.738;2023-02-20T13:22:59;16.30;;;9.07;;
48550;SDS011;34397;51.176;6.738;2023-02-20T13:25:40;15.50;;;9.40;;
48550;SDS011;34397;51.176;6.738;2023-02-20T13:28:24;14.38;;;8.27;;
48550;SDS011;34397;51.176;6.738;2023-02-20T13:31:14;16.55;;;8.88;;
48550;SDS011;34397;51.176;6.738;2023-02-20T13:33:50;19.70;;;10.43;;
48550;SDS011;34397;51.176;6.738;2023-02-20T13:36:59;16.73;;;9.77;;
48550;SDS011;34397;51.176;6.738;2023-02-20T13:39:38;17.05;;;10.18;;
48550;SDS011;34397;51.176;6.738;2023-02-20T13:42:25;16.95;;;9.63;;
48550;SDS011;34397;51.176;6.738;2023-02-20T13:48:17;16.92;;;10.50;;
48550;SDS011;34397;51.176;6.738;2023-02-20T13:51:30;21.10;;;10.45;;
48550;SDS011;34397;51.176;6.738;2023-02-20T13:54:22;18.30;;;10.45;;
48550;SDS011;34397;51.176;6.738;2023-02-20T13:56:59;18.02;;;10.35;;
48550;SDS011;34397;51.176;6.738;2023-02-20T13:59:33;19.88;;;10.02;;
48550;SDS011;34397;51.176;6.738;2023-02-20T14:02:15;17.20;;;10.68;;
48550;SDS011;34397;51.176;6.738;2023-02-20T14:04:50;17.92;;;10.70;;
48550;SDS011;34397;51.176;6.738;2023-02-20T14:07:29;18.63;;;10.88;;
48550;SDS011;34397;51.176;6.738;2023-02-20T14:10:07;24.10;;;11.27;;
48550;SDS011;34397;51.176;6.738;2023-02-20T14:12:54;16.40;;;9.80;;
48550;SDS011;34397;51.176;6.738;2023-02-20T14:15:31;15.30;;;9.13;;
48550;SDS011;34397;51.176;6.738;2023-02-20T14:18:14;18.20;;;10.52;;
48550;SDS011;34397;51.176;6.738;2023-02-20T14:20:48;20.98;;;11.35;;
48550;SDS011;34397;51.176;6.738;2023-02-20T14:23:27;18.33;;;10.98;;
48550;SDS011;34397;51.176;6.738;2023-02-20T14:26:00;21.38;;;10.48;;
48550;SDS011;34397;51.176;6.738;2023-02-20T14:28:42;17.13;;;10.32;;
48550;SDS011;34397;51.176;6.738;2023-02-20T14:31:18;19.60;;;10.57;;
48550;SDS011;34397;51.176;6.738;2023-02-20T14:33:54;18.90;;;10.68;;
48550;SDS011;34397;51.176;6.738;2023-02-20T14:36:33;16.15;;;9.93;;
48550;SDS011;34397;51.176;6.738;2023-02-20T14:39:23;16.80;;;10.43;;
48550;SDS011;34397;51.176;6.738;2023-02-20T14:42:10;19.27;;;10.63;;
48550;SDS011;34397;51.176;6.738;2023-02-20T14:44:48;16.40;;;9.30;;
48550;SDS011;34397;51.176;6.738;2023-02-20T14:47:25;21.10;;;9.10;;
48550;SDS011;34397;51.176;6.738;2023-02-20T14:50:06;15.02;;;9.82;;
48550;SDS011;34397;51.176;6.738;2023-02-20T14:52:45;13.73;;;9.05;;
48550;SDS011;34397;51.176;6.738;2023-02-20T14:55:17;14.13;;;9.18;;
48550;SDS011;34397;51.176;6.738;2023-02-20T14:57:49;20.50;;;10.25;;
48550;SDS011;34397;51.176;6.738;2023-02-20T15:00:24;17.52;;;9.88;;
48550;SDS011;34397;51.176;6.738;2023-02-20T15:03:07;17.67;;;10.00;;
48550;SDS011;34397;51.176;6.738;2023-02-20T15:05:48;19.65;;;10.80;;
48550;SDS011;34397;51.176;6.738;2023-02-20T15:08:20;17.73;;;9.40;;
48550;SDS011;34397;51.176;6.738;2023-02-20T15:10:54;15.80;;;10.10;;
48550;SDS011;34397;51.176;6.738;2023-02-20T15:13:28;15.95;;;9.57;;
48550;SDS011;34397;51.176;6.738;2023-02-20T15:16:13;17.38;;;9.90;;
48550;SDS011;34397;51.176;6.738;2023-02-20T15:18:52;25.88;;;10.57;;
48550;SDS011;34397;51.176;6.738;2023-02-20T15:21:31;15.45;;;9.40;;
48550;SDS011;34397;51.176;6.738;2023-02-20T15:27:08;17.23;;;9.82;;
48550;SDS011;34397;51.176;6.738;2023-02-20T15:29:44;19.55;;;9.43;;
48550;SDS011;34397;51.176;6.738;2023-02-20T15:32:19;18.02;;;10.00;;
48550;SDS011;34397;51.176;6.738;2023-02-20T15:34:54;16.13;;;8.90;;
48550;SDS011;34397;51.176;6.738;2023-02-20T15:37:27;16.83;;;9.18;;
48550;SDS011;34397;51.176;6.738;2023-02-20T15:40:07;16.20;;;8.80;;
48550;SDS011;34397;51.176;6.738;2023-02-20T15:42:49;16.17;;;9.48;;
48550;SDS011;34397;51.176;6.738;2023-02-20T15:45:25;15.65;;;9.25;;
48550;SDS011;34397;51.176;6.738;2023-02-20T15:48:00;17.80;;;9.52;;
48550;SDS011;34397;51.176;6.738;2023-02-20T15:50:32;17.48;;;8.95;;
48550;SDS011;34397;51.176;6.738;2023-02-20T15:53:04;16.83;;;8.70;;
48550;SDS011;34397;51.176;6.738;2023-02-20T15:55:37;17.35;;;8.98;;
48550;SDS011;34397;51.176;6.738;2023-02-20T15:58:15;17.77;;;9.02;;
48550;SDS011;34397;51.176;6.738;2023-02-20T16:00:54;15.05;;;8.85;;